createdAt,value
2017-06-26T00:02:15.196Z,8.40
2017-06-26T00:04:43.937Z,9.63
2017-06-26T00:07:12.393Z,7.50
2017-06-26T00:09:40.941Z,8.90
2017-06-26T00:12:09.381Z,8.13
2017-06-26T00:14:37.812Z,9.40
2017-06-26T00:17:06.393Z,9.30
2017-06-26T00:19:34.860Z,10.27
2017-06-26T00:22:03.734Z,8.67
2017-06-26T00:24:32.966Z,8.57
2017-06-26T00:27:01.565Z,10.63
2017-06-26T00:29:30.148Z,7.90
2017-06-26T00:31:58.584Z,7.83
2017-06-26T00:34:27.163Z,7.43
2017-06-26T00:36:56.424Z,6.93
2017-06-26T00:39:24.936Z,6.70
2017-06-26T00:41:53.452Z,9.03
2017-06-26T00:44:22.344Z,7.50
2017-06-26T00:46:50.964Z,6.80
2017-06-26T00:49:19.410Z,7.27
2017-06-26T00:51:47.857Z,8.30
2017-06-26T00:54:16.478Z,7.67
2017-06-26T00:56:44.933Z,7.80
2017-06-26T00:59:13.361Z,7.70
2017-06-26T01:01:42.153Z,11.57
2017-06-26T01:04:10.620Z,9.80
2017-06-26T01:06:39.072Z,8.17
2017-06-26T01:09:08.536Z,10.87
2017-06-26T01:11:37.025Z,9.40
2017-06-26T01:14:05.468Z,9.70
2017-06-26T01:16:34.051Z,9.80
2017-06-26T01:19:02.525Z,9.10
2017-06-26T01:21:31.724Z,10.57
2017-06-26T01:24:00.337Z,10.80
2017-06-26T01:26:28.756Z,11.10
2017-06-26T01:28:57.197Z,10.60
2017-06-26T01:31:25.788Z,11.10
2017-06-26T01:33:54.640Z,11.43
2017-06-26T01:36:23.846Z,10.90
2017-06-26T01:38:52.549Z,10.47
2017-06-26T01:41:21.056Z,11.50
2017-06-26T01:43:49.528Z,11.37
2017-06-26T01:46:18.012Z,12.73
2017-06-26T01:48:46.605Z,11.67
2017-06-26T01:51:15.258Z,10.97
2017-06-26T01:53:44.287Z,10.70
2017-06-26T01:56:12.787Z,12.10
2017-06-26T01:58:41.220Z,11.47
2017-06-26T02:01:09.848Z,11.50
2017-06-26T02:03:38.304Z,11.83
2017-06-26T02:06:06.766Z,11.67
2017-06-26T02:08:35.251Z,11.63
2017-06-26T02:11:04.215Z,10.53
2017-06-26T02:13:32.764Z,12.53
2017-06-26T02:16:01.286Z,10.77
2017-06-26T02:18:30.138Z,10.67
2017-06-26T02:20:58.596Z,10.40
2017-06-26T02:23:27.270Z,10.83
2017-06-26T02:25:55.978Z,11.23
2017-06-26T02:28:24.429Z,9.13
2017-06-26T02:30:53.616Z,9.80
2017-06-26T02:34:25.663Z,10.17
2017-06-26T02:36:54.125Z,11.63
2017-06-26T02:39:22.656Z,10.33
2017-06-26T02:41:51.853Z,9.80
2017-06-26T02:44:20.461Z,10.63
2017-06-26T02:46:48.898Z,10.33
2017-06-26T02:49:17.360Z,11.37
2017-06-26T02:51:45.824Z,9.77
2017-06-26T02:54:14.406Z,9.43
2017-06-26T02:56:42.852Z,10.47
2017-06-26T02:59:13.405Z,9.90
2017-06-26T03:01:41.872Z,10.23
2017-06-26T03:04:11.128Z,9.07
2017-06-26T03:06:39.596Z,20.80
2017-06-26T03:09:08.163Z,10.50
2017-06-26T03:21:30.345Z,8.93
2017-06-26T03:23:59.569Z,11.53
2017-06-26T03:26:28.050Z,11.30
2017-06-26T03:28:56.535Z,10.90
2017-06-26T03:31:24.992Z,9.97
2017-06-26T03:33:53.659Z,11.83
2017-06-26T03:36:22.277Z,11.20
2017-06-26T03:38:51.106Z,10.97
2017-06-26T03:41:19.656Z,10.70
2017-06-26T03:43:48.296Z,12.93
2017-06-26T03:46:16.941Z,11.60
2017-06-26T03:48:45.532Z,11.60
2017-06-26T03:51:13.986Z,13.97
2017-06-26T03:53:43.203Z,12.53
2017-06-26T03:56:11.660Z,11.97
2017-06-26T03:58:40.284Z,12.83
2017-06-26T04:01:08.712Z,11.70
2017-06-26T04:03:37.631Z,13.20
2017-06-26T04:06:06.100Z,12.30
2017-06-26T04:08:35.300Z,12.10
2017-06-26T04:11:03.796Z,13.90
2017-06-26T04:13:32.248Z,12.97
2017-06-26T04:16:00.913Z,13.57
2017-06-26T04:18:29.740Z,12.87
2017-06-26T04:20:58.968Z,14.33
2017-06-26T04:23:27.541Z,13.77
2017-06-26T04:25:56.139Z,13.10
2017-06-26T04:28:24.637Z,14.90
2017-06-26T04:30:53.193Z,13.70
2017-06-26T04:33:21.700Z,12.10
2017-06-26T04:35:50.164Z,14.63
2017-06-26T04:38:18.841Z,14.70
2017-06-26T04:40:47.349Z,11.37
2017-06-26T04:43:16.244Z,12.57
2017-06-26T04:45:44.827Z,10.90
2017-06-26T04:48:13.454Z,11.23
2017-06-26T04:50:42.382Z,12.30
2017-06-26T04:53:10.922Z,10.70
2017-06-26T04:55:39.470Z,9.50
2017-06-26T04:58:07.922Z,8.77
2017-06-26T05:00:37.149Z,7.37
2017-06-26T05:03:05.609Z,6.80
2017-06-26T05:05:34.373Z,7.47
2017-06-26T05:08:03.808Z,6.87
2017-06-26T05:10:32.300Z,7.17
2017-06-26T05:13:01.112Z,7.20
2017-06-26T05:15:29.579Z,5.50
2017-06-26T05:17:58.042Z,6.03
2017-06-26T05:20:26.546Z,7.00
2017-06-26T05:22:55.028Z,4.70
2017-06-26T05:25:24.091Z,5.80
2017-06-26T05:27:53.428Z,6.07
2017-06-26T05:30:22.624Z,5.97
2017-06-26T05:32:51.128Z,6.57
2017-06-26T05:35:19.625Z,6.23
2017-06-26T05:37:48.181Z,6.10
2017-06-26T05:40:16.645Z,5.13
2017-06-26T05:42:45.145Z,6.03
2017-06-26T05:45:13.980Z,5.60
2017-06-26T05:47:42.537Z,7.10
2017-06-26T05:50:12.060Z,6.33
2017-06-26T05:52:40.716Z,5.97
2017-06-26T05:55:10.028Z,6.57
2017-06-26T05:57:38.723Z,5.10
2017-06-26T06:00:07.299Z,6.90
2017-06-26T06:02:36.109Z,6.87
2017-06-26T06:05:04.549Z,7.90
2017-06-26T06:07:33.056Z,7.67
2017-06-26T06:10:01.933Z,8.20
2017-06-26T06:12:30.603Z,8.67
2017-06-26T06:14:59.216Z,8.37
2017-06-26T06:17:27.928Z,8.53
2017-06-26T06:19:56.673Z,6.17
2017-06-26T06:22:25.161Z,7.03
2017-06-26T06:24:54.028Z,7.60
2017-06-26T06:27:22.716Z,7.50
2017-06-26T06:29:51.448Z,8.60
2017-06-26T06:32:19.987Z,8.10
2017-06-26T06:34:49.426Z,7.63
2017-06-26T06:37:18.633Z,8.17
2017-06-26T06:39:47.228Z,7.80
2017-06-26T06:42:15.888Z,7.20
2017-06-26T06:44:45.214Z,6.67
2017-06-26T06:47:13.773Z,6.40
2017-06-26T06:49:42.432Z,6.63
2017-06-26T06:52:10.952Z,7.30
2017-06-26T06:54:39.414Z,7.40
2017-06-26T06:57:09.325Z,4.83
2017-06-26T06:59:38.241Z,5.20
2017-06-26T07:02:07.064Z,5.80
2017-06-26T07:04:35.786Z,5.47
2017-06-26T07:07:04.291Z,4.90
2017-06-26T07:09:32.760Z,5.43
2017-06-26T07:12:01.446Z,6.13
2017-06-26T07:14:30.824Z,3.13
2017-06-26T07:17:00.218Z,3.90
2017-06-26T07:19:28.694Z,2.90
2017-06-26T07:21:57.679Z,5.83
2017-06-26T07:24:26.505Z,2.73
2017-06-26T07:26:55.416Z,2.73
2017-06-26T07:29:24.028Z,3.13
2017-06-26T07:31:52.564Z,3.07
2017-06-26T07:34:21.133Z,2.53
2017-06-26T07:36:50.572Z,2.07
2017-06-26T07:39:19.582Z,2.70
2017-06-26T07:41:48.441Z,5.43
2017-06-26T07:44:16.880Z,5.30
2017-06-26T07:46:45.477Z,6.17
2017-06-26T07:49:14.632Z,11.10
2017-06-26T07:51:43.100Z,7.20
2017-06-26T07:54:12.732Z,1.97
2017-06-26T07:56:41.714Z,4.20
2017-06-26T07:59:10.312Z,1.90
2017-06-26T08:01:39.128Z,4.30
2017-06-26T08:04:07.599Z,2.50
2017-06-26T08:06:36.129Z,3.43
2017-06-26T08:09:04.864Z,3.60
2017-06-26T08:11:33.300Z,2.03
2017-06-26T08:14:03.038Z,3.37
2017-06-26T08:16:31.633Z,2.73
2017-06-26T08:19:00.317Z,4.07
2017-06-26T08:21:29.221Z,2.50
2017-06-26T08:23:57.800Z,4.97
2017-06-26T08:26:26.657Z,2.67
2017-06-26T08:28:55.616Z,4.50
2017-06-26T08:31:25.378Z,2.63
2017-06-26T08:33:54.356Z,2.87
2017-06-26T08:36:23.021Z,2.33
2017-06-26T08:38:51.690Z,3.40
2017-06-26T08:41:20.145Z,2.70
2017-06-26T08:43:49.085Z,6.00
2017-06-26T08:46:18.304Z,3.03
2017-06-26T08:48:53.713Z,2.23
2017-06-26T08:51:22.457Z,2.30
2017-06-26T08:53:50.921Z,4.67
2017-06-26T08:56:19.382Z,2.63
2017-06-26T08:58:48.322Z,2.57
2017-06-26T09:01:17.008Z,4.23
2017-06-26T09:03:45.929Z,3.00
2017-06-26T09:06:14.437Z,3.10
2017-06-26T09:08:43.699Z,2.13
2017-06-26T09:11:12.220Z,3.10
2017-06-26T09:13:41.519Z,3.70
2017-06-26T09:16:11.288Z,2.10
2017-06-26T09:18:39.777Z,1.80
2017-06-26T09:21:08.361Z,1.73
2017-06-26T09:23:36.905Z,3.53
2017-06-26T09:26:05.370Z,1.97
2017-06-26T09:28:35.173Z,2.90
2017-06-26T09:31:03.608Z,2.07
2017-06-26T09:33:32.290Z,1.90
2017-06-26T09:36:00.757Z,2.33
2017-06-26T09:38:29.264Z,3.17
2017-06-26T09:40:57.869Z,6.97
2017-06-26T09:43:26.556Z,4.50
2017-06-26T09:45:55.515Z,2.37
2017-06-26T09:48:24.397Z,2.07
2017-06-26T09:50:52.869Z,1.90
2017-06-26T09:53:21.449Z,3.33
2017-06-26T09:55:49.989Z,2.57
2017-06-26T09:58:18.599Z,1.87
2017-06-26T10:00:47.268Z,1.83
2017-06-26T10:03:15.838Z,3.33
2017-06-26T10:05:44.465Z,2.27
2017-06-26T10:08:13.511Z,1.97
2017-06-26T10:10:41.997Z,1.20
2017-06-26T10:13:10.644Z,2.93
2017-06-26T10:15:39.161Z,3.03
2017-06-26T10:18:07.963Z,1.73
2017-06-26T10:20:36.525Z,1.63
2017-06-26T10:23:05.187Z,2.50
2017-06-26T10:25:33.695Z,1.97
2017-06-26T10:28:02.228Z,3.10
2017-06-26T10:30:31.045Z,3.37
2017-06-26T10:32:59.913Z,3.80
2017-06-26T10:35:29.295Z,3.20
2017-06-26T10:37:57.780Z,2.90
2017-06-26T10:40:26.444Z,6.20
2017-06-26T10:42:54.929Z,3.23
2017-06-26T10:45:23.380Z,2.77
2017-06-26T10:47:51.968Z,3.03
2017-06-26T10:50:20.546Z,1.87
2017-06-26T10:52:49.013Z,3.77
2017-06-26T10:55:23.104Z,2.87
2017-06-26T10:57:52.608Z,3.50
2017-06-26T11:00:21.202Z,2.33
2017-06-26T11:02:50.561Z,2.43
2017-06-26T11:05:19.014Z,2.53
2017-06-26T11:07:47.690Z,2.10
2017-06-26T11:10:17.410Z,3.07
2017-06-26T11:12:45.924Z,1.70
2017-06-26T11:15:14.416Z,2.40
2017-06-26T11:17:42.885Z,2.30
2017-06-26T11:20:11.412Z,1.57
2017-06-26T11:22:39.894Z,2.63
2017-06-26T11:25:08.645Z,4.50
2017-06-26T11:27:37.256Z,3.43
2017-06-26T11:30:05.796Z,2.30
2017-06-26T11:32:34.497Z,2.50
2017-06-26T11:35:03.429Z,1.43
2017-06-26T11:37:31.885Z,2.33
2017-06-26T11:40:00.348Z,2.17
2017-06-26T11:42:30.750Z,1.77
2017-06-26T11:45:00.185Z,2.23
2017-06-26T11:47:28.839Z,3.40
2017-06-26T11:49:57.294Z,3.43
2017-06-26T11:52:25.743Z,2.63
2017-06-26T11:54:54.288Z,3.10
2017-06-26T11:57:22.891Z,2.97
2017-06-26T11:59:51.677Z,2.83
2017-06-26T12:02:20.188Z,4.17
2017-06-26T12:04:49.189Z,4.93
2017-06-26T12:07:17.721Z,2.60
2017-06-26T12:09:46.324Z,5.17
2017-06-26T12:12:16.749Z,5.37
2017-06-26T12:14:48.503Z,5.07
2017-06-26T12:17:18.789Z,3.97
2017-06-26T12:19:53.749Z,3.03
2017-06-26T12:22:23.642Z,3.87
2017-06-26T12:24:53.638Z,3.40
2017-06-26T12:27:26.582Z,2.87
2017-06-26T12:29:58.977Z,1.23
2017-06-26T12:32:32.489Z,4.40
2017-06-26T12:35:01.630Z,5.70
2017-06-26T12:37:31.183Z,5.00
2017-06-26T12:40:02.852Z,3.73
2017-06-26T12:42:33.132Z,2.70
2017-06-26T12:45:03.815Z,1.97
2017-06-26T12:47:34.485Z,3.57
2017-06-26T12:50:04.224Z,4.30
2017-06-26T12:52:35.445Z,4.03
2017-06-26T12:55:08.254Z,4.63
2017-06-26T12:57:39.762Z,1.53
2017-06-26T13:00:16.796Z,4.87
2017-06-26T13:02:47.791Z,3.17
2017-06-26T13:05:20.339Z,3.60
2017-06-26T13:07:51.331Z,4.10
2017-06-26T13:12:54.499Z,5.17
2017-06-26T13:15:24.772Z,3.73
2017-06-26T13:17:54.049Z,4.03
2017-06-26T13:20:24.439Z,4.23
2017-06-26T13:25:22.612Z,4.80
2017-06-26T13:27:52.521Z,2.00
2017-06-26T13:30:21.356Z,2.50
2017-06-26T13:32:51.915Z,4.67
2017-06-26T13:35:21.592Z,3.67
2017-06-26T13:37:50.306Z,6.40
2017-06-26T13:40:19.660Z,2.60
2017-06-26T13:42:48.932Z,4.47
2017-06-26T13:45:18.678Z,5.43
2017-06-26T13:47:48.273Z,2.67
2017-06-26T13:50:20.210Z,4.67
2017-06-26T13:52:49.597Z,1.97
2017-06-26T13:55:18.105Z,4.67
2017-06-26T13:57:47.560Z,6.70
2017-06-26T14:00:17.781Z,2.30
2017-06-26T14:02:46.634Z,3.00
2017-06-26T14:05:17.698Z,4.23
2017-06-26T14:07:47.226Z,1.93
2017-06-26T14:10:18.393Z,4.10
2017-06-26T14:12:48.448Z,2.50
2017-06-26T14:15:17.133Z,6.43
2017-06-26T14:17:47.750Z,2.23
2017-06-26T14:20:19.724Z,4.77
2017-06-26T14:22:53.309Z,2.83
2017-06-26T14:25:21.994Z,3.57
2017-06-26T14:27:50.618Z,4.97
2017-06-26T14:30:19.149Z,4.90
2017-06-26T14:32:49.290Z,7.77
2017-06-26T14:35:19.992Z,3.63
2017-06-26T14:37:49.638Z,3.73
2017-06-26T14:40:21.048Z,17.70
2017-06-26T14:42:53.379Z,3.40
2017-06-26T14:45:21.927Z,4.27
2017-06-26T14:47:51.165Z,6.50
2017-06-26T14:50:19.649Z,3.03
2017-06-26T14:52:49.219Z,2.03
2017-06-26T14:55:17.715Z,5.23
2017-06-26T14:57:46.734Z,2.97
2017-06-26T15:00:15.322Z,4.10
2017-06-26T15:02:43.821Z,4.40
2017-06-26T15:05:12.344Z,6.50
2017-06-26T15:07:41.295Z,5.40
2017-06-26T15:10:09.936Z,7.07
2017-06-26T15:12:38.430Z,4.27
2017-06-26T15:15:07.016Z,6.80
2017-06-26T15:17:35.921Z,8.10
2017-06-26T15:20:04.208Z,5.20
2017-06-26T15:22:32.700Z,6.97
2017-06-26T15:25:01.146Z,5.53
2017-06-26T15:27:29.804Z,6.60
2017-06-26T15:30:02.652Z,5.00
2017-06-26T15:32:31.444Z,5.53
2017-06-26T15:35:00.015Z,2.93
2017-06-26T15:37:28.489Z,4.20
2017-06-26T15:39:57.077Z,4.97
2017-06-26T15:42:25.840Z,3.20
2017-06-26T15:44:54.628Z,7.80
2017-06-26T15:47:23.287Z,4.60
2017-06-26T15:49:52.142Z,2.87
2017-06-26T15:52:20.624Z,4.97
2017-06-26T15:54:49.217Z,2.77
2017-06-26T15:57:17.873Z,5.10
2017-06-26T15:59:46.443Z,7.40
2017-06-26T16:02:15.042Z,6.13
2017-06-26T16:04:43.527Z,3.87
2017-06-26T16:07:12.682Z,6.30
2017-06-26T16:09:41.986Z,4.70
2017-06-26T16:12:10.701Z,5.40
2017-06-26T16:14:39.144Z,3.83
2017-06-26T16:17:07.618Z,5.70
2017-06-26T16:19:36.266Z,4.13
2017-06-26T16:22:04.760Z,3.87
2017-06-26T16:24:33.691Z,7.83
2017-06-26T16:27:02.155Z,3.30
2017-06-26T16:29:30.808Z,5.50
2017-06-26T16:31:59.818Z,8.00
2017-06-26T16:34:28.403Z,4.17
2017-06-26T16:36:56.904Z,3.37
2017-06-26T16:39:25.414Z,3.50
2017-06-26T16:41:56.109Z,4.83
2017-06-26T16:44:24.795Z,6.17
2017-06-26T16:46:53.339Z,3.23
2017-06-26T16:49:22.209Z,4.60
2017-06-26T16:51:56.244Z,5.33
2017-06-26T16:54:24.727Z,8.17
2017-06-26T16:56:57.572Z,5.37
2017-06-26T16:59:26.934Z,4.70
2017-06-26T17:01:55.428Z,4.97
2017-06-26T17:04:24.688Z,5.90
2017-06-26T17:06:53.237Z,3.03
2017-06-26T17:09:21.705Z,4.27
2017-06-26T17:11:50.155Z,6.47
2017-06-26T17:14:19.380Z,5.20
2017-06-26T17:16:48.001Z,3.57
2017-06-26T17:19:16.685Z,6.77
2017-06-26T17:21:45.145Z,5.63
2017-06-26T17:24:13.682Z,8.30
2017-06-26T17:26:42.148Z,10.97
2017-06-26T17:29:11.365Z,6.97
2017-06-26T17:31:40.013Z,7.67
2017-06-26T17:34:08.605Z,4.67
2017-06-26T17:36:37.544Z,4.13
2017-06-26T17:39:06.132Z,3.90
2017-06-26T17:41:48.015Z,4.40
2017-06-26T17:44:16.816Z,3.43
2017-06-26T17:46:45.566Z,6.80
2017-06-26T17:49:14.925Z,4.37
2017-06-26T17:51:43.475Z,7.73
2017-06-26T17:54:12.377Z,5.13
2017-06-26T17:56:40.929Z,5.80
2017-06-26T17:59:11.491Z,7.23
2017-06-26T18:01:39.964Z,7.43
2017-06-26T18:04:08.467Z,8.10
2017-06-26T18:06:37.000Z,8.20
2017-06-26T18:09:05.660Z,5.10
2017-06-26T18:11:34.269Z,6.03
2017-06-26T18:14:02.784Z,4.87
2017-06-26T18:16:31.321Z,7.17
2017-06-26T18:19:00.112Z,4.63
2017-06-26T18:21:28.940Z,10.67
2017-06-26T18:23:57.999Z,7.23
2017-06-26T18:26:26.515Z,6.27
2017-06-26T18:28:55.128Z,3.47
2017-06-26T18:31:23.616Z,5.07
2017-06-26T18:33:52.256Z,5.27
2017-06-26T18:36:20.936Z,7.80
2017-06-26T18:38:49.444Z,7.17
2017-06-26T18:41:17.940Z,6.70
2017-06-26T18:43:46.421Z,8.20
2017-06-26T18:46:14.915Z,10.30
2017-06-26T18:48:43.547Z,6.70
2017-06-26T18:51:12.048Z,3.90
2017-06-26T18:53:40.583Z,4.83
2017-06-26T18:56:09.359Z,3.70
2017-06-26T18:58:38.137Z,4.97
2017-06-26T19:01:06.598Z,4.33
2017-06-26T19:03:35.100Z,9.30
2017-06-26T19:06:03.704Z,5.67
2017-06-26T19:08:32.239Z,6.23
2017-06-26T19:11:00.784Z,6.87
2017-06-26T19:13:29.257Z,7.33
2017-06-26T19:15:59.109Z,8.17
2017-06-26T19:18:27.980Z,4.80
2017-06-26T19:20:56.648Z,4.90
2017-06-26T19:23:25.177Z,5.27
2017-06-26T19:25:54.647Z,4.47
2017-06-26T19:28:23.646Z,4.60
2017-06-26T19:30:52.549Z,4.90
2017-06-26T19:33:21.525Z,3.20
2017-06-26T19:35:50.045Z,4.60
2017-06-26T19:38:20.025Z,9.27
2017-06-26T19:40:48.545Z,5.43
2017-06-26T19:43:17.094Z,9.10
2017-06-26T19:45:45.869Z,5.83
2017-06-26T19:48:14.745Z,5.30
2017-06-26T19:50:43.494Z,4.63
2017-06-26T19:53:12.346Z,6.70
2017-06-26T19:55:40.812Z,5.60
2017-06-26T19:58:09.381Z,3.13
2017-06-26T20:00:38.075Z,4.23
2017-06-26T20:03:07.997Z,6.10
2017-06-26T20:05:36.589Z,5.20
2017-06-26T20:08:05.261Z,8.97
2017-06-26T20:10:35.063Z,3.53
2017-06-26T20:13:03.734Z,6.57
2017-06-26T20:15:32.509Z,6.47
2017-06-26T20:18:00.976Z,5.17
2017-06-26T20:20:29.557Z,6.57
2017-06-26T20:22:58.082Z,6.87
2017-06-26T20:25:26.664Z,4.63
2017-06-26T20:27:55.202Z,5.37
2017-06-26T20:30:24.163Z,4.73
2017-06-26T20:32:52.761Z,5.90
2017-06-26T20:35:21.237Z,6.93
2017-06-26T20:37:49.980Z,5.47
2017-06-26T20:40:18.524Z,5.73
2017-06-26T20:42:47.097Z,6.00
2017-06-26T20:45:15.675Z,5.07
2017-06-26T20:47:44.230Z,2.90
2017-06-26T20:50:12.940Z,4.37
2017-06-26T20:52:41.475Z,5.23
2017-06-26T20:55:10.314Z,5.53
2017-06-26T20:57:38.771Z,10.03
2017-06-26T21:00:07.362Z,8.20
2017-06-26T21:02:35.850Z,5.00
2017-06-26T21:05:04.332Z,5.10
2017-06-26T21:07:32.809Z,6.00
2017-06-26T21:10:01.337Z,7.00
2017-06-26T21:12:29.920Z,5.03
2017-06-26T21:14:58.459Z,7.33
2017-06-26T21:17:26.940Z,5.93
2017-06-26T21:19:55.396Z,7.70
2017-06-26T21:22:24.256Z,6.47
2017-06-26T21:24:52.755Z,5.60
2017-06-26T21:27:21.392Z,5.67
2017-06-26T21:29:49.913Z,3.93
2017-06-26T21:32:18.977Z,3.83
2017-06-26T21:34:47.563Z,2.93
2017-06-26T21:37:16.574Z,7.33
2017-06-26T21:39:45.140Z,5.13
2017-06-26T21:42:14.753Z,2.73
2017-06-26T21:44:43.277Z,5.73
2017-06-26T21:47:12.258Z,8.23
2017-06-26T21:49:40.847Z,7.33
2017-06-26T21:52:09.346Z,3.40
2017-06-26T21:54:38.038Z,9.93
2017-06-26T21:57:06.676Z,3.90
2017-06-26T21:59:35.462Z,5.50
2017-06-26T22:02:04.224Z,5.70
2017-06-26T22:04:32.968Z,4.70
2017-06-26T22:07:01.524Z,5.83
2017-06-26T22:09:30.487Z,5.30
2017-06-26T22:11:59.032Z,6.27
2017-06-26T22:14:27.800Z,4.30
2017-06-26T22:16:56.296Z,3.63
2017-06-26T22:19:24.803Z,5.53
2017-06-26T22:21:53.286Z,4.60
2017-06-26T22:24:21.742Z,6.23
2017-06-26T22:26:50.184Z,6.10
2017-06-26T22:42:30.633Z,3.20
2017-06-26T22:44:59.088Z,6.70
2017-06-26T22:47:27.660Z,4.93
2017-06-26T22:49:56.250Z,4.07
2017-06-26T22:52:24.769Z,4.30
2017-06-26T22:54:53.286Z,6.50
2017-06-26T22:57:21.993Z,6.80
2017-06-26T22:59:50.428Z,6.77
2017-06-26T23:02:19.655Z,3.73
2017-06-26T23:04:48.266Z,9.43
2017-06-26T23:07:17.092Z,4.07
2017-06-26T23:09:45.811Z,6.37
2017-06-26T23:12:14.248Z,6.27
2017-06-26T23:14:42.706Z,5.40
2017-06-26T23:17:11.183Z,9.53
2017-06-26T23:19:39.776Z,4.30
2017-06-26T23:22:08.469Z,5.20
2017-06-26T23:24:37.017Z,9.53
2017-06-26T23:27:05.480Z,8.50
2017-06-26T23:29:33.985Z,5.80
2017-06-26T23:32:02.487Z,3.37
2017-06-26T23:34:31.349Z,3.50
2017-06-26T23:36:59.901Z,3.90
2017-06-26T23:39:28.357Z,8.53
2017-06-26T23:41:56.840Z,4.77
2017-06-26T23:44:25.411Z,6.07
2017-06-26T23:46:53.892Z,8.20
2017-06-26T23:49:23.040Z,5.60
2017-06-26T23:51:53.285Z,5.83
2017-06-26T23:54:21.767Z,5.33
2017-06-26T23:56:50.576Z,4.80
2017-06-26T23:59:19.053Z,4.90
